EJU43QE LPPT-EGKK
Flight info
| Callsign | EJU43QE |
|---|---|
| Flight time | 2h 12m |
| Altitude | 34000 |
| Route | IXIDA DCT RIVRO DCT TOSDI N745 ZMR N873 DELOG DCT ERCOZ DCT BADUR DCT FEJAC DCT JSY DCT REVTU UP88 VASUX |
| Aircraft | A320/M-SDE2E3FGHIJ1RWXYZ/LB1 |
Departure
| Time | 2026-05-07 12:49 |
|---|---|
| Airport | Lisbon Humberto Delgado Airport (LPPT) |
Arrival
| Time | 2026-05-07 15:01 |
|---|---|
| Airport | London Gatwick Airport (EGKK) |
| Time | Latitude | Longitude | Altitude | Speed | Heading |
|---|---|---|---|---|---|
| 2026-05-07 12:05 | 38.76495 | -9.13366 | 345 ft | 0 kts | 73° |
| 2026-05-07 12:39 | 38.76489 | -9.13393 | 347 ft | 4 kts | 72° |
| 2026-05-07 12:39 | 38.76478 | -9.13422 | 349 ft | 4 kts | 31° |
| 2026-05-07 12:40 | 38.76469 | -9.13426 | 354 ft | 0 kts | 343° |
| 2026-05-07 12:42 | 38.76484 | -9.13432 | 356 ft | 5 kts | 345° |
| 2026-05-07 12:42 | 38.76527 | -9.13447 | 347 ft | 7 kts | 343° |
| 2026-05-07 12:42 | 38.76556 | -9.13458 | 354 ft | 7 kts | 342° |
| 2026-05-07 12:42 | 38.76598 | -9.13474 | 346 ft | 6 kts | 343° |
| 2026-05-07 12:43 | 38.76636 | -9.13491 | 351 ft | 6 kts | 332° |
| 2026-05-07 12:43 | 38.76646 | -9.13543 | 352 ft | 7 kts | 257° |
| 2026-05-07 12:43 | 38.76634 | -9.13608 | 345 ft | 8 kts | 257° |
| 2026-05-07 12:43 | 38.76621 | -9.13689 | 346 ft | 10 kts | 257° |
| 2026-05-07 12:44 | 38.76604 | -9.13793 | 346 ft | 14 kts | 259° |
| 2026-05-07 12:44 | 38.76583 | -9.13924 | 352 ft | 16 kts | 258° |
| 2026-05-07 12:44 | 38.76529 | -9.14055 | 357 ft | 17 kts | 228° |
| 2026-05-07 12:44 | 38.76495 | -9.14169 | 350 ft | 11 kts | 275° |
| 2026-05-07 12:45 | 38.76507 | -9.14212 | 348 ft | 0 kts | 292° |
| 2026-05-07 12:45 | 38.76515 | -9.14236 | 336 ft | 7 kts | 293° |
| 2026-05-07 12:45 | 38.76535 | -9.14299 | 336 ft | 3 kts | 293° |
| 2026-05-07 12:46 | 38.76537 | -9.14304 | 334 ft | 0 kts | 293° |
| 2026-05-07 12:47 | 38.76541 | -9.14315 | 335 ft | 4 kts | 293° |
| 2026-05-07 12:47 | 38.76561 | -9.14375 | 332 ft | 10 kts | 293° |
| 2026-05-07 12:48 | 38.76587 | -9.14420 | 331 ft | 3 kts | 359° |
| 2026-05-07 12:48 | 38.76600 | -9.14414 | 334 ft | 0 kts | 25° |
| 2026-05-07 12:48 | 38.76667 | -9.14374 | 336 ft | 38 kts | 24° |
| 2026-05-07 12:49 | 38.77132 | -9.14129 | 356 ft | 103 kts | 22° |
| 2026-05-07 12:49 | 38.77962 | -9.13684 | 366 ft | 154 kts | 23° |
| 2026-05-07 12:49 | 38.79034 | -9.13139 | 734 ft | 169 kts | 17° |
| 2026-05-07 12:49 | 38.80139 | -9.12557 | 1424 ft | 174 kts | 19° |
| 2026-05-07 12:50 | 38.81283 | -9.11913 | 1929 ft | 189 kts | 22° |
| 2026-05-07 12:50 | 38.82503 | -9.11020 | 2274 ft | 215 kts | 28° |
| 2026-05-07 12:50 | 38.83858 | -9.09970 | 2745 ft | 240 kts | 28° |
| 2026-05-07 12:50 | 38.85350 | -9.08814 | 3320 ft | 258 kts | 30° |
| 2026-05-07 12:51 | 38.86919 | -9.07592 | 4088 ft | 268 kts | 31° |
| 2026-05-07 12:51 | 38.88524 | -9.06342 | 4956 ft | 274 kts | 31° |
| 2026-05-07 12:51 | 38.90098 | -9.04927 | 5801 ft | 279 kts | 43° |
| 2026-05-07 12:51 | 38.91543 | -9.03239 | 6700 ft | 282 kts | 44° |
| 2026-05-07 12:52 | 38.92996 | -9.01539 | 7551 ft | 285 kts | 44° |
| 2026-05-07 12:52 | 38.94473 | -8.99816 | 8411 ft | 289 kts | 43° |
| 2026-05-07 12:52 | 38.95955 | -8.98091 | 9265 ft | 293 kts | 43° |
| 2026-05-07 12:52 | 38.97481 | -8.96313 | 9913 ft | 298 kts | 43° |
| 2026-05-07 12:53 | 38.99038 | -8.94497 | 10415 ft | 312 kts | 43° |
| 2026-05-07 12:53 | 39.00700 | -8.92551 | 10743 ft | 332 kts | 43° |
| 2026-05-07 12:53 | 39.02426 | -8.90528 | 11385 ft | 339 kts | 43° |
| 2026-05-07 12:53 | 39.04182 | -8.88473 | 12123 ft | 344 kts | 43° |
| 2026-05-07 12:54 | 39.05963 | -8.86390 | 12857 ft | 348 kts | 42° |
| 2026-05-07 12:54 | 39.07736 | -8.84315 | 13612 ft | 351 kts | 41° |
| 2026-05-07 12:54 | 39.09556 | -8.82184 | 14273 ft | 354 kts | 41° |
| 2026-05-07 12:54 | 39.11385 | -8.80041 | 14941 ft | 357 kts | 41° |
| 2026-05-07 12:55 | 39.13230 | -8.77879 | 15573 ft | 360 kts | 41° |
| 2026-05-07 12:55 | 39.15085 | -8.75702 | 16221 ft | 363 kts | 40° |
| 2026-05-07 12:55 | 39.16935 | -8.73470 | 16851 ft | 367 kts | 45° |
| 2026-05-07 12:55 | 39.18644 | -8.70999 | 17489 ft | 370 kts | 47° |
| 2026-05-07 12:56 | 39.20346 | -8.68504 | 18159 ft | 373 kts | 46° |
| 2026-05-07 12:56 | 39.22066 | -8.65981 | 18704 ft | 376 kts | 46° |
| 2026-05-07 12:56 | 39.23801 | -8.63439 | 19225 ft | 379 kts | 46° |
| 2026-05-07 12:56 | 39.25552 | -8.60869 | 19738 ft | 383 kts | 46° |
| 2026-05-07 12:57 | 39.27317 | -8.58275 | 20253 ft | 386 kts | 45° |
| 2026-05-07 12:57 | 39.29096 | -8.55659 | 20776 ft | 390 kts | 45° |
| 2026-05-07 12:57 | 39.30891 | -8.53017 | 21265 ft | 393 kts | 45° |
| 2026-05-07 12:57 | 39.32704 | -8.50353 | 21767 ft | 397 kts | 45° |
| 2026-05-07 12:58 | 39.34532 | -8.47665 | 22242 ft | 400 kts | 45° |
| 2026-05-07 12:58 | 39.36378 | -8.44951 | 22721 ft | 404 kts | 44° |
| 2026-05-07 12:58 | 39.38236 | -8.42212 | 23205 ft | 407 kts | 44° |
| 2026-05-07 12:58 | 39.40110 | -8.39445 | 23637 ft | 410 kts | 44° |
| 2026-05-07 12:59 | 39.41993 | -8.36660 | 23838 ft | 413 kts | 44° |
| 2026-05-07 12:59 | 39.43884 | -8.33858 | 23902 ft | 413 kts | 44° |
| 2026-05-07 12:59 | 39.45767 | -8.31064 | 23887 ft | 412 kts | 44° |
| 2026-05-07 12:59 | 39.47647 | -8.28273 | 23888 ft | 411 kts | 44° |
| 2026-05-07 13:00 | 39.49527 | -8.25483 | 23888 ft | 411 kts | 44° |
| 2026-05-07 13:00 | 39.51408 | -8.22690 | 23890 ft | 411 kts | 44° |
| 2026-05-07 13:00 | 39.53286 | -8.19901 | 23891 ft | 410 kts | 44° |
| 2026-05-07 13:00 | 39.55152 | -8.17128 | 23887 ft | 409 kts | 44° |
| 2026-05-07 13:01 | 39.57019 | -8.14352 | 23884 ft | 409 kts | 44° |
| 2026-05-07 13:01 | 39.58889 | -8.11571 | 23882 ft | 409 kts | 44° |
| 2026-05-07 13:01 | 39.60756 | -8.08792 | 23882 ft | 409 kts | 44° |
| 2026-05-07 13:01 | 39.62619 | -8.06004 | 23881 ft | 409 kts | 44° |
| 2026-05-07 13:02 | 39.64455 | -8.03249 | 23876 ft | 409 kts | 44° |
| 2026-05-07 13:02 | 39.66353 | -8.00447 | 23876 ft | 408 kts | 42° |
| 2026-05-07 13:02 | 39.68303 | -7.97771 | 24019 ft | 409 kts | 40° |
| 2026-05-07 13:02 | 39.70322 | -7.95151 | 24445 ft | 411 kts | 39° |
| 2026-05-07 13:03 | 39.72340 | -7.92585 | 24839 ft | 413 kts | 39° |
| 2026-05-07 13:03 | 39.74401 | -7.89969 | 25218 ft | 416 kts | 39° |
| 2026-05-07 13:03 | 39.76473 | -7.87313 | 25590 ft | 419 kts | 39° |
| 2026-05-07 13:03 | 39.78541 | -7.84623 | 25978 ft | 421 kts | 39° |
| 2026-05-07 13:04 | 39.80598 | -7.81917 | 26354 ft | 424 kts | 39° |
| 2026-05-07 13:04 | 39.82673 | -7.79171 | 26675 ft | 427 kts | 39° |
| 2026-05-07 13:04 | 39.84760 | -7.76408 | 27024 ft | 430 kts | 39° |
| 2026-05-07 13:04 | 39.86861 | -7.73623 | 27376 ft | 433 kts | 39° |
| 2026-05-07 13:05 | 39.88981 | -7.70813 | 27749 ft | 436 kts | 39° |
| 2026-05-07 13:05 | 39.91114 | -7.67987 | 28094 ft | 439 kts | 39° |
| 2026-05-07 13:05 | 39.93260 | -7.65150 | 28431 ft | 441 kts | 39° |
| 2026-05-07 13:05 | 39.95420 | -7.62294 | 28769 ft | 444 kts | 39° |
| 2026-05-07 13:06 | 39.97594 | -7.59412 | 29102 ft | 447 kts | 39° |
| 2026-05-07 13:06 | 39.99772 | -7.56519 | 29486 ft | 448 kts | 38° |
| 2026-05-07 13:06 | 40.01958 | -7.53612 | 29886 ft | 449 kts | 38° |
| 2026-05-07 13:06 | 40.04147 | -7.50697 | 30191 ft | 451 kts | 38° |
| 2026-05-07 13:07 | 40.06348 | -7.47769 | 30449 ft | 453 kts | 38° |
| 2026-05-07 13:07 | 40.08559 | -7.44823 | 30701 ft | 455 kts | 38° |
| 2026-05-07 13:07 | 40.10782 | -7.41858 | 30943 ft | 458 kts | 38° |
| 2026-05-07 13:07 | 40.13015 | -7.38878 | 31191 ft | 460 kts | 38° |
| 2026-05-07 13:08 | 40.15250 | -7.35885 | 31539 ft | 460 kts | 38° |
| 2026-05-07 13:08 | 40.17477 | -7.32895 | 31889 ft | 459 kts | 38° |
| 2026-05-07 13:08 | 40.19709 | -7.29901 | 32209 ft | 460 kts | 38° |
| 2026-05-07 13:08 | 40.21945 | -7.26904 | 32540 ft | 460 kts | 38° |
| 2026-05-07 13:09 | 40.24178 | -7.23906 | 32869 ft | 460 kts | 38° |
| 2026-05-07 13:09 | 40.26410 | -7.20904 | 33269 ft | 460 kts | 38° |
| 2026-05-07 13:09 | 40.28605 | -7.17948 | 33699 ft | 458 kts | 37° |
| 2026-05-07 13:09 | 40.30827 | -7.14959 | 33846 ft | 456 kts | 37° |
| 2026-05-07 13:10 | 40.35167 | -7.09098 | 33873 ft | 444 kts | 37° |
| 2026-05-07 13:10 | 40.39481 | -7.03268 | 33873 ft | 446 kts | 37° |
| 2026-05-07 13:11 | 40.43807 | -6.97421 | 33877 ft | 446 kts | 37° |
| 2026-05-07 13:11 | 40.48123 | -6.91570 | 33876 ft | 446 kts | 37° |
| 2026-05-07 13:12 | 40.52442 | -6.85699 | 33876 ft | 447 kts | 37° |
| 2026-05-07 13:12 | 40.56754 | -6.79822 | 33896 ft | 446 kts | 38° |
| 2026-05-07 13:13 | 40.60975 | -6.74065 | 33892 ft | 445 kts | 38° |
| 2026-05-07 13:13 | 40.65369 | -6.68376 | 33887 ft | 441 kts | 34° |
| 2026-05-07 13:14 | 40.69966 | -6.63066 | 33880 ft | 438 kts | 32° |
| 2026-05-07 13:14 | 40.74593 | -6.57825 | 33898 ft | 439 kts | 34° |
| 2026-05-07 13:15 | 40.79166 | -6.52499 | 33900 ft | 439 kts | 34° |
| 2026-05-07 13:15 | 40.83714 | -6.47107 | 33886 ft | 439 kts | 35° |
| 2026-05-07 13:16 | 40.88255 | -6.41721 | 33895 ft | 439 kts | 36° |
| 2026-05-07 13:16 | 40.92800 | -6.36327 | 33886 ft | 439 kts | 36° |
| 2026-05-07 13:17 | 40.97311 | -6.30967 | 33896 ft | 439 kts | 36° |
| 2026-05-07 13:17 | 41.01858 | -6.25570 | 33893 ft | 439 kts | 36° |
| 2026-05-07 13:18 | 41.06392 | -6.20169 | 33882 ft | 438 kts | 36° |
| 2026-05-07 13:18 | 41.10918 | -6.14761 | 33882 ft | 438 kts | 36° |
| 2026-05-07 13:19 | 41.15448 | -6.09349 | 33880 ft | 438 kts | 36° |
| 2026-05-07 13:19 | 41.19976 | -6.03927 | 33920 ft | 438 kts | 37° |
| 2026-05-07 13:20 | 41.24484 | -5.98506 | 33906 ft | 438 kts | 37° |
| 2026-05-07 13:20 | 41.28981 | -5.93090 | 33904 ft | 437 kts | 37° |
| 2026-05-07 13:21 | 41.33493 | -5.87657 | 33896 ft | 437 kts | 37° |
| 2026-05-07 13:21 | 41.37993 | -5.82221 | 33889 ft | 437 kts | 37° |
| 2026-05-07 13:22 | 41.42491 | -5.76767 | 33896 ft | 437 kts | 38° |
| 2026-05-07 13:22 | 41.46984 | -5.71305 | 33890 ft | 437 kts | 38° |
| 2026-05-07 13:23 | 41.51470 | -5.65917 | 33893 ft | 435 kts | 34° |
| 2026-05-07 13:23 | 41.56629 | -5.61937 | 33886 ft | 426 kts | 18° |
| 2026-05-07 13:24 | 41.62102 | -5.58871 | 33883 ft | 427 kts | 19° |
| 2026-05-07 13:24 | 41.67583 | -5.55782 | 33885 ft | 427 kts | 19° |
| 2026-05-07 13:25 | 41.73067 | -5.52679 | 33868 ft | 428 kts | 19° |
| 2026-05-07 13:25 | 41.78544 | -5.49576 | 33868 ft | 428 kts | 19° |
| 2026-05-07 13:26 | 41.84038 | -5.46463 | 33873 ft | 429 kts | 19° |
| 2026-05-07 13:26 | 41.89535 | -5.43336 | 33878 ft | 429 kts | 20° |
| 2026-05-07 13:27 | 41.95008 | -5.40216 | 33873 ft | 430 kts | 20° |
| 2026-05-07 13:27 | 42.00519 | -5.37073 | 33871 ft | 430 kts | 20° |
| 2026-05-07 13:28 | 42.06034 | -5.33924 | 33874 ft | 431 kts | 20° |
| 2026-05-07 13:28 | 42.11555 | -5.30758 | 33877 ft | 432 kts | 21° |
| 2026-05-07 13:29 | 42.17095 | -5.27575 | 33869 ft | 434 kts | 21° |
| 2026-05-07 13:29 | 42.22665 | -5.24380 | 33870 ft | 435 kts | 21° |
| 2026-05-07 13:30 | 42.27303 | -5.21710 | 33870 ft | 436 kts | 21° |
| 2026-05-07 13:30 | 42.32886 | -5.18494 | 33881 ft | 437 kts | 21° |
| 2026-05-07 13:31 | 42.39379 | -5.14737 | 33881 ft | 437 kts | 21° |
| 2026-05-07 13:31 | 42.44063 | -5.12016 | 33882 ft | 437 kts | 21° |
| 2026-05-07 13:32 | 42.49654 | -5.08769 | 33884 ft | 437 kts | 21° |
| 2026-05-07 13:32 | 42.55250 | -5.05522 | 33891 ft | 437 kts | 21° |
| 2026-05-07 13:33 | 42.60839 | -5.02265 | 33892 ft | 437 kts | 21° |
| 2026-05-07 13:33 | 42.66429 | -4.98993 | 33891 ft | 437 kts | 21° |
| 2026-05-07 13:34 | 42.74814 | -4.94094 | 33881 ft | 438 kts | 22° |
| 2026-05-07 13:35 | 42.80424 | -4.90806 | 33867 ft | 440 kts | 22° |
| 2026-05-07 13:35 | 42.86022 | -4.87514 | 33871 ft | 442 kts | 22° |
| 2026-05-07 13:36 | 42.91705 | -4.84162 | 33880 ft | 443 kts | 22° |
| 2026-05-07 13:36 | 42.97328 | -4.80842 | 33880 ft | 444 kts | 22° |
| 2026-05-07 13:37 | 43.03001 | -4.77495 | 33882 ft | 444 kts | 22° |
| 2026-05-07 13:37 | 43.08677 | -4.74143 | 33883 ft | 445 kts | 22° |
| 2026-05-07 13:38 | 43.14355 | -4.70771 | 33892 ft | 445 kts | 22° |
| 2026-05-07 13:38 | 43.20031 | -4.67389 | 33892 ft | 445 kts | 22° |
| 2026-05-07 13:39 | 43.25705 | -4.64001 | 33894 ft | 445 kts | 22° |
| 2026-05-07 13:39 | 43.31385 | -4.60601 | 33896 ft | 445 kts | 22° |
| 2026-05-07 13:40 | 43.37068 | -4.57203 | 33881 ft | 446 kts | 22° |
| 2026-05-07 13:40 | 43.42764 | -4.53789 | 33879 ft | 448 kts | 23° |
| 2026-05-07 13:41 | 43.48483 | -4.50342 | 33880 ft | 450 kts | 23° |
| 2026-05-07 13:41 | 43.54222 | -4.46879 | 33884 ft | 451 kts | 23° |
| 2026-05-07 13:42 | 43.59974 | -4.43409 | 33895 ft | 452 kts | 22° |
| 2026-05-07 13:42 | 43.65732 | -4.39937 | 33896 ft | 452 kts | 23° |
| 2026-05-07 13:43 | 43.71495 | -4.36444 | 33897 ft | 452 kts | 23° |
| 2026-05-07 13:43 | 43.77254 | -4.32940 | 33910 ft | 452 kts | 22° |
| 2026-05-07 13:44 | 43.83016 | -4.29433 | 33913 ft | 452 kts | 22° |
| 2026-05-07 13:44 | 43.88774 | -4.25921 | 33917 ft | 452 kts | 23° |
| 2026-05-07 13:45 | 43.94482 | -4.22428 | 33918 ft | 452 kts | 23° |
| 2026-05-07 13:45 | 44.00236 | -4.18904 | 33932 ft | 452 kts | 23° |
| 2026-05-07 13:46 | 44.05978 | -4.15382 | 33929 ft | 451 kts | 23° |
| 2026-05-07 13:46 | 44.11723 | -4.11850 | 33930 ft | 451 kts | 23° |
| 2026-05-07 13:47 | 44.17466 | -4.08306 | 33948 ft | 451 kts | 23° |
| 2026-05-07 13:47 | 44.23206 | -4.04754 | 33944 ft | 451 kts | 23° |
| 2026-05-07 13:48 | 44.28947 | -4.01201 | 33946 ft | 451 kts | 23° |
| 2026-05-07 13:48 | 44.34909 | -3.98661 | 33943 ft | 448 kts | 6° |
| 2026-05-07 13:49 | 44.41118 | -3.98039 | 33946 ft | 447 kts | 2° |
| 2026-05-07 13:49 | 44.47337 | -3.97474 | 33951 ft | 447 kts | 2° |
| 2026-05-07 13:50 | 44.53543 | -3.96901 | 33953 ft | 447 kts | 2° |
| 2026-05-07 13:50 | 44.59754 | -3.96337 | 33964 ft | 447 kts | 2° |
| 2026-05-07 13:51 | 44.65961 | -3.95774 | 33966 ft | 447 kts | 2° |
| 2026-05-07 13:51 | 44.72161 | -3.95216 | 33970 ft | 446 kts | 2° |
| 2026-05-07 13:52 | 44.78368 | -3.94649 | 33968 ft | 446 kts | 2° |
| 2026-05-07 13:52 | 44.84553 | -3.94086 | 33966 ft | 446 kts | 2° |
| 2026-05-07 13:53 | 44.90751 | -3.93526 | 33965 ft | 446 kts | 2° |
| 2026-05-07 13:53 | 44.96946 | -3.92958 | 33977 ft | 446 kts | 2° |
| 2026-05-07 13:54 | 45.03137 | -3.92384 | 33977 ft | 446 kts | 2° |
| 2026-05-07 13:54 | 45.09323 | -3.91817 | 33976 ft | 445 kts | 2° |
| 2026-05-07 13:55 | 45.15506 | -3.91256 | 33979 ft | 445 kts | 2° |
| 2026-05-07 13:55 | 45.21641 | -3.90687 | 33981 ft | 444 kts | 2° |
| 2026-05-07 13:56 | 45.27851 | -3.90114 | 33982 ft | 444 kts | 2° |
| 2026-05-07 13:56 | 45.34009 | -3.89549 | 33994 ft | 444 kts | 2° |
| 2026-05-07 13:57 | 45.40124 | -3.88981 | 34000 ft | 443 kts | 2° |
| 2026-05-07 13:57 | 45.46276 | -3.88408 | 33978 ft | 443 kts | 2° |
| 2026-05-07 13:58 | 45.52431 | -3.87835 | 33972 ft | 444 kts | 2° |
| 2026-05-07 13:58 | 45.58597 | -3.87265 | 33973 ft | 444 kts | 2° |
| 2026-05-07 13:59 | 45.64769 | -3.86695 | 33976 ft | 445 kts | 2° |
| 2026-05-07 13:59 | 45.70945 | -3.86116 | 33988 ft | 445 kts | 2° |
| 2026-05-07 14:00 | 45.77112 | -3.85535 | 33993 ft | 444 kts | 2° |
| 2026-05-07 14:00 | 45.83286 | -3.84949 | 33998 ft | 444 kts | 2° |
| 2026-05-07 14:01 | 45.89441 | -3.84365 | 34001 ft | 444 kts | 3° |
| 2026-05-07 14:01 | 45.95599 | -3.83778 | 34007 ft | 443 kts | 3° |
| 2026-05-07 14:02 | 46.01749 | -3.83201 | 34006 ft | 443 kts | 3° |
| 2026-05-07 14:02 | 46.07893 | -3.82622 | 34007 ft | 442 kts | 3° |
| 2026-05-07 14:03 | 46.14033 | -3.82038 | 34007 ft | 442 kts | 3° |
| 2026-05-07 14:03 | 46.20167 | -3.81438 | 34007 ft | 442 kts | 3° |
| 2026-05-07 14:04 | 46.26299 | -3.80848 | 34003 ft | 441 kts | 3° |
| 2026-05-07 14:04 | 46.32425 | -3.80269 | 34011 ft | 441 kts | 3° |
| 2026-05-07 14:05 | 46.38550 | -3.79677 | 34013 ft | 441 kts | 3° |
| 2026-05-07 14:05 | 46.44679 | -3.79079 | 34012 ft | 441 kts | 3° |
| 2026-05-07 14:06 | 46.50793 | -3.78493 | 34014 ft | 441 kts | 2° |
| 2026-05-07 14:06 | 46.56872 | -3.77920 | 34011 ft | 440 kts | 2° |
| 2026-05-07 14:07 | 46.62986 | -3.77326 | 34010 ft | 440 kts | 2° |
| 2026-05-07 14:07 | 46.69103 | -3.76729 | 34010 ft | 440 kts | 2° |
| 2026-05-07 14:08 | 46.75213 | -3.76133 | 34008 ft | 440 kts | 3° |
| 2026-05-07 14:08 | 46.81324 | -3.75535 | 34007 ft | 440 kts | 2° |
| 2026-05-07 14:09 | 46.87433 | -3.74941 | 34007 ft | 440 kts | 2° |
| 2026-05-07 14:09 | 46.93547 | -3.74339 | 34009 ft | 440 kts | 2° |
| 2026-05-07 14:10 | 46.99629 | -3.73746 | 34003 ft | 440 kts | 2° |
| 2026-05-07 14:10 | 47.05746 | -3.73139 | 34002 ft | 440 kts | 2° |
| 2026-05-07 14:11 | 47.11860 | -3.72527 | 34006 ft | 440 kts | 3° |
| 2026-05-07 14:11 | 47.17932 | -3.71929 | 34014 ft | 440 kts | 2° |
| 2026-05-07 14:12 | 47.23999 | -3.71339 | 34000 ft | 440 kts | 2° |
| 2026-05-07 14:12 | 47.30111 | -3.70730 | 34003 ft | 440 kts | 2° |
| 2026-05-07 14:13 | 47.36224 | -3.70119 | 34011 ft | 440 kts | 2° |
| 2026-05-07 14:13 | 47.42324 | -3.69517 | 34009 ft | 440 kts | 2° |
| 2026-05-07 14:14 | 47.48438 | -3.68904 | 34004 ft | 440 kts | 2° |
| 2026-05-07 14:14 | 47.54546 | -3.68288 | 34012 ft | 440 kts | 2° |
| 2026-05-07 14:15 | 47.60665 | -3.67670 | 34005 ft | 440 kts | 2° |
| 2026-05-07 14:15 | 47.66772 | -3.67048 | 34001 ft | 440 kts | 2° |
| 2026-05-07 14:16 | 47.72870 | -3.66429 | 33998 ft | 440 kts | 2° |
| 2026-05-07 14:16 | 47.78976 | -3.65814 | 34002 ft | 440 kts | 2° |
| 2026-05-07 14:17 | 47.85093 | -3.65189 | 34003 ft | 440 kts | 2° |
| 2026-05-07 14:17 | 47.89113 | -3.64778 | 34002 ft | 440 kts | 2° |
| 2026-05-07 14:18 | 47.94190 | -3.64266 | 33995 ft | 440 kts | 2° |
| 2026-05-07 14:18 | 48.00307 | -3.63648 | 34001 ft | 440 kts | 2° |
| 2026-05-07 14:19 | 48.06424 | -3.63016 | 33999 ft | 440 kts | 2° |
| 2026-05-07 14:19 | 48.12540 | -3.62386 | 33994 ft | 440 kts | 2° |
| 2026-05-07 14:20 | 48.18638 | -3.61761 | 33990 ft | 440 kts | 2° |
| 2026-05-07 14:20 | 48.24751 | -3.61129 | 33989 ft | 441 kts | 2° |
| 2026-05-07 14:21 | 48.30770 | -3.59509 | 33978 ft | 442 kts | 20° |
| 2026-05-07 14:21 | 48.33558 | -3.57588 | 33968 ft | 441 kts | 31° |
| 2026-05-07 14:21 | 48.36085 | -3.54967 | 33972 ft | 441 kts | 41° |
| 2026-05-07 14:22 | 48.40930 | -3.47177 | 33981 ft | 439 kts | 50° |
| 2026-05-07 14:22 | 48.44315 | -3.41383 | 33975 ft | 440 kts | 50° |
| 2026-05-07 14:23 | 48.48354 | -3.34463 | 33984 ft | 440 kts | 50° |
| 2026-05-07 14:23 | 48.52389 | -3.27534 | 33989 ft | 440 kts | 50° |
| 2026-05-07 14:24 | 48.56391 | -3.20632 | 33981 ft | 440 kts | 50° |
| 2026-05-07 14:24 | 48.60411 | -3.13671 | 33992 ft | 440 kts | 50° |
| 2026-05-07 14:25 | 48.64431 | -3.06688 | 34004 ft | 440 kts | 50° |
| 2026-05-07 14:25 | 48.68438 | -2.99701 | 33985 ft | 439 kts | 52° |
| 2026-05-07 14:26 | 48.71508 | -2.91802 | 33990 ft | 435 kts | 71° |
| 2026-05-07 14:26 | 48.73156 | -2.83027 | 33991 ft | 433 kts | 78° |
| 2026-05-07 14:27 | 48.74662 | -2.74184 | 33992 ft | 434 kts | 78° |
| 2026-05-07 14:27 | 48.76178 | -2.65339 | 33994 ft | 434 kts | 75° |
| 2026-05-07 14:28 | 48.78815 | -2.57098 | 33989 ft | 438 kts | 54° |
| 2026-05-07 14:28 | 48.83115 | -2.50608 | 33991 ft | 438 kts | 37° |
| 2026-05-07 14:29 | 48.87955 | -2.44976 | 33995 ft | 439 kts | 38° |
| 2026-05-07 14:29 | 48.92786 | -2.39309 | 34003 ft | 439 kts | 38° |
| 2026-05-07 14:30 | 48.97626 | -2.33616 | 34008 ft | 440 kts | 38° |
| 2026-05-07 14:30 | 49.02460 | -2.27907 | 34015 ft | 440 kts | 38° |
| 2026-05-07 14:31 | 49.07296 | -2.22196 | 34027 ft | 440 kts | 38° |
| 2026-05-07 14:31 | 49.12134 | -2.16476 | 34018 ft | 440 kts | 37° |
| 2026-05-07 14:32 | 49.16964 | -2.10743 | 34024 ft | 439 kts | 38° |
| 2026-05-07 14:32 | 49.21805 | -2.05038 | 34027 ft | 439 kts | 34° |
| 2026-05-07 14:33 | 49.27091 | -2.00384 | 34027 ft | 438 kts | 28° |
| 2026-05-07 14:33 | 49.32400 | -1.95907 | 34028 ft | 438 kts | 28° |
| 2026-05-07 14:34 | 49.37734 | -1.91389 | 34028 ft | 438 kts | 28° |
| 2026-05-07 14:34 | 49.43060 | -1.86841 | 34034 ft | 438 kts | 28° |
| 2026-05-07 14:35 | 49.48387 | -1.82279 | 34034 ft | 438 kts | 28° |
| 2026-05-07 14:35 | 49.53700 | -1.77725 | 34044 ft | 438 kts | 28° |
| 2026-05-07 14:36 | 49.59036 | -1.73188 | 34046 ft | 437 kts | 25° |
| 2026-05-07 14:36 | 49.64693 | -1.69833 | 34030 ft | 436 kts | 18° |
| 2026-05-07 14:36 | 49.67550 | -1.68260 | 33922 ft | 435 kts | 18° |
| 2026-05-07 14:37 | 49.70382 | -1.66691 | 33639 ft | 431 kts | 18° |
| 2026-05-07 14:37 | 49.75990 | -1.63571 | 33101 ft | 426 kts | 18° |
| 2026-05-07 14:37 | 49.78779 | -1.62022 | 32826 ft | 425 kts | 18° |
| 2026-05-07 14:38 | 49.81552 | -1.60481 | 32561 ft | 423 kts | 18° |
| 2026-05-07 14:38 | 49.84300 | -1.58957 | 32281 ft | 420 kts | 18° |
| 2026-05-07 14:38 | 49.87030 | -1.57448 | 31799 ft | 417 kts | 18° |
| 2026-05-07 14:38 | 49.89751 | -1.55939 | 31310 ft | 414 kts | 18° |
| 2026-05-07 14:39 | 49.92449 | -1.54434 | 30834 ft | 411 kts | 18° |
| 2026-05-07 14:39 | 49.95130 | -1.52936 | 30361 ft | 408 kts | 18° |
| 2026-05-07 14:39 | 49.97796 | -1.51445 | 29856 ft | 405 kts | 18° |
| 2026-05-07 14:39 | 50.00435 | -1.49972 | 29427 ft | 400 kts | 18° |
| 2026-05-07 14:40 | 50.03049 | -1.48598 | 29009 ft | 394 kts | 16° |
| 2026-05-07 14:40 | 50.05649 | -1.47319 | 28583 ft | 389 kts | 15° |
| 2026-05-07 14:40 | 50.08222 | -1.46099 | 28178 ft | 384 kts | 15° |
| 2026-05-07 14:40 | 50.10766 | -1.44903 | 27768 ft | 380 kts | 15° |
| 2026-05-07 14:41 | 50.13281 | -1.43709 | 27353 ft | 376 kts | 15° |
| 2026-05-07 14:41 | 50.15768 | -1.42513 | 26946 ft | 372 kts | 15° |
| 2026-05-07 14:41 | 50.18232 | -1.41318 | 26527 ft | 369 kts | 16° |
| 2026-05-07 14:41 | 50.20674 | -1.40120 | 26115 ft | 367 kts | 16° |
| 2026-05-07 14:42 | 50.23100 | -1.38920 | 25680 ft | 365 kts | 16° |
| 2026-05-07 14:42 | 50.25508 | -1.37731 | 25241 ft | 363 kts | 16° |
| 2026-05-07 14:42 | 50.27909 | -1.36546 | 24808 ft | 361 kts | 16° |
| 2026-05-07 14:42 | 50.30306 | -1.35367 | 24356 ft | 360 kts | 16° |
| 2026-05-07 14:43 | 50.32665 | -1.34204 | 23916 ft | 360 kts | 16° |
| 2026-05-07 14:43 | 50.34995 | -1.33051 | 23442 ft | 359 kts | 16° |
| 2026-05-07 14:43 | 50.37373 | -1.31876 | 22972 ft | 357 kts | 16° |
| 2026-05-07 14:43 | 50.39735 | -1.30704 | 22535 ft | 355 kts | 16° |
| 2026-05-07 14:44 | 50.42080 | -1.29538 | 22122 ft | 352 kts | 16° |
| 2026-05-07 14:44 | 50.44409 | -1.28379 | 21676 ft | 350 kts | 16° |
| 2026-05-07 14:44 | 50.46726 | -1.27232 | 21250 ft | 348 kts | 16° |
| 2026-05-07 14:44 | 50.49011 | -1.26016 | 20819 ft | 347 kts | 22° |
| 2026-05-07 14:45 | 50.51134 | -1.24212 | 20412 ft | 347 kts | 34° |
| 2026-05-07 14:45 | 50.53019 | -1.21857 | 19992 ft | 346 kts | 39° |
| 2026-05-07 14:45 | 50.54863 | -1.19425 | 19578 ft | 345 kts | 39° |
| 2026-05-07 14:45 | 50.56703 | -1.17000 | 19146 ft | 345 kts | 39° |
| 2026-05-07 14:46 | 50.58538 | -1.14581 | 18744 ft | 345 kts | 39° |
| 2026-05-07 14:46 | 50.60374 | -1.12159 | 18331 ft | 344 kts | 39° |
| 2026-05-07 14:46 | 50.62211 | -1.09739 | 17886 ft | 344 kts | 39° |
| 2026-05-07 14:46 | 50.64042 | -1.07330 | 17482 ft | 342 kts | 39° |
| 2026-05-07 14:47 | 50.65830 | -1.04884 | 17083 ft | 340 kts | 45° |
| 2026-05-07 14:47 | 50.67365 | -1.02077 | 16689 ft | 338 kts | 51° |
| 2026-05-07 14:47 | 50.68851 | -0.99211 | 16289 ft | 337 kts | 51° |
| 2026-05-07 14:47 | 50.70317 | -0.96380 | 16088 ft | 330 kts | 51° |
| 2026-05-07 14:48 | 50.71759 | -0.93594 | 15797 ft | 326 kts | 51° |
| 2026-05-07 14:48 | 50.73186 | -0.90832 | 15464 ft | 324 kts | 51° |
| 2026-05-07 14:48 | 50.74604 | -0.88088 | 15143 ft | 322 kts | 51° |
| 2026-05-07 14:48 | 50.76016 | -0.85358 | 14816 ft | 320 kts | 51° |
| 2026-05-07 14:49 | 50.77485 | -0.82723 | 14506 ft | 318 kts | 40° |
| 2026-05-07 14:49 | 50.79375 | -0.80958 | 14188 ft | 317 kts | 23° |
| 2026-05-07 14:49 | 50.81415 | -0.79652 | 13870 ft | 316 kts | 21° |
| 2026-05-07 14:49 | 50.83461 | -0.78402 | 13518 ft | 314 kts | 21° |
| 2026-05-07 14:50 | 50.85497 | -0.77168 | 13122 ft | 311 kts | 21° |
| 2026-05-07 14:50 | 50.87527 | -0.76105 | 12484 ft | 308 kts | 8° |
| 2026-05-07 14:50 | 50.89646 | -0.75827 | 11838 ft | 305 kts | 2° |
| 2026-05-07 14:50 | 50.91759 | -0.75724 | 11200 ft | 302 kts | 1° |
| 2026-05-07 14:51 | 50.93804 | -0.75642 | 10611 ft | 299 kts | 1° |
| 2026-05-07 14:51 | 50.95876 | -0.75559 | 10013 ft | 297 kts | 1° |
| 2026-05-07 14:51 | 50.97887 | -0.75478 | 9614 ft | 285 kts | 1° |
| 2026-05-07 14:51 | 50.99824 | -0.75400 | 9430 ft | 267 kts | 1° |
| 2026-05-07 14:52 | 51.01651 | -0.75326 | 9016 ft | 260 kts | 1° |
| 2026-05-07 14:52 | 51.03444 | -0.75252 | 8507 ft | 256 kts | 1° |
| 2026-05-07 14:52 | 51.05191 | -0.75179 | 8010 ft | 253 kts | 1° |
| 2026-05-07 14:52 | 51.06942 | -0.75107 | 7521 ft | 249 kts | 1° |
| 2026-05-07 14:53 | 51.08661 | -0.75039 | 7047 ft | 245 kts | 1° |
| 2026-05-07 14:53 | 51.10272 | -0.74977 | 6592 ft | 241 kts | 1° |
| 2026-05-07 14:53 | 51.11938 | -0.74913 | 6097 ft | 237 kts | 1° |
| 2026-05-07 14:53 | 51.13542 | -0.74547 | 5549 ft | 234 kts | 24° |
| 2026-05-07 14:54 | 51.14798 | -0.72986 | 5055 ft | 231 kts | 56° |
| 2026-05-07 14:54 | 51.15313 | -0.70612 | 4547 ft | 228 kts | 91° |
| 2026-05-07 14:54 | 51.14895 | -0.68258 | 4356 ft | 220 kts | 125° |
| 2026-05-07 14:54 | 51.13754 | -0.66764 | 4234 ft | 211 kts | 158° |
| 2026-05-07 14:55 | 51.12437 | -0.65834 | 4085 ft | 204 kts | 143° |
| 2026-05-07 14:55 | 51.11588 | -0.64110 | 4010 ft | 196 kts | 116° |
| 2026-05-07 14:55 | 51.11059 | -0.62155 | 3925 ft | 191 kts | 112° |
| 2026-05-07 14:55 | 51.10584 | -0.60190 | 3860 ft | 190 kts | 111° |
| 2026-05-07 14:56 | 51.10118 | -0.58226 | 3775 ft | 189 kts | 111° |
| 2026-05-07 14:56 | 51.09750 | -0.56222 | 3697 ft | 189 kts | 95° |
| 2026-05-07 14:56 | 51.09894 | -0.54151 | 3637 ft | 190 kts | 78° |
| 2026-05-07 14:56 | 51.10187 | -0.52106 | 3562 ft | 190 kts | 78° |
| 2026-05-07 14:57 | 51.10478 | -0.50060 | 3487 ft | 189 kts | 78° |
| 2026-05-07 14:57 | 51.10767 | -0.48016 | 3412 ft | 189 kts | 78° |
| 2026-05-07 14:57 | 51.11055 | -0.45975 | 3353 ft | 189 kts | 78° |
| 2026-05-07 14:57 | 51.11343 | -0.43928 | 3180 ft | 190 kts | 78° |
| 2026-05-07 14:58 | 51.11632 | -0.41869 | 2937 ft | 193 kts | 78° |
| 2026-05-07 14:58 | 51.11927 | -0.39767 | 2684 ft | 196 kts | 79° |
| 2026-05-07 14:58 | 51.12223 | -0.37651 | 2442 ft | 196 kts | 79° |
| 2026-05-07 14:58 | 51.12519 | -0.35541 | 2159 ft | 194 kts | 80° |
| 2026-05-07 14:59 | 51.12804 | -0.33503 | 1890 ft | 183 kts | 81° |
| 2026-05-07 14:59 | 51.13072 | -0.31584 | 1649 ft | 173 kts | 81° |
| 2026-05-07 14:59 | 51.13317 | -0.29834 | 1458 ft | 159 kts | 81° |
| 2026-05-07 14:59 | 51.13548 | -0.28173 | 1212 ft | 148 kts | 80° |
| 2026-05-07 15:00 | 51.13764 | -0.26617 | 1013 ft | 141 kts | 80° |
| 2026-05-07 15:00 | 51.13972 | -0.25120 | 820 ft | 136 kts | 81° |
| 2026-05-07 15:00 | 51.14171 | -0.23666 | 633 ft | 134 kts | 82° |
| 2026-05-07 15:00 | 51.14365 | -0.22250 | 450 ft | 132 kts | 81° |
| 2026-05-07 15:01 | 51.14568 | -0.20819 | 272 ft | 132 kts | 81° |
| 2026-05-07 15:01 | 51.14754 | -0.19434 | 206 ft | 112 kts | 79° |
| 2026-05-07 15:01 | 51.14888 | -0.18502 | 212 ft | 63 kts | 77° |
| 2026-05-07 15:01 | 51.14951 | -0.18047 | 206 ft | 30 kts | 71° |
| 2026-05-07 15:02 | 51.15054 | -0.17799 | 216 ft | 17 kts | 51° |
| 2026-05-07 15:02 | 51.15122 | -0.17758 | 205 ft | 7 kts | 352° |
| 2026-05-07 15:02 | 51.15169 | -0.17767 | 205 ft | 6 kts | 354° |
| 2026-05-07 15:02 | 51.15209 | -0.17775 | 211 ft | 6 kts | 352° |
| 2026-05-07 15:03 | 51.15250 | -0.17774 | 204 ft | 6 kts | 27° |
| 2026-05-07 15:03 | 51.15264 | -0.17719 | 209 ft | 5 kts | 80° |
| 2026-05-07 15:03 | 51.15269 | -0.17667 | 204 ft | 5 kts | 79° |
| 2026-05-07 15:03 | 51.15276 | -0.17610 | 206 ft | 9 kts | 79° |
| 2026-05-07 15:04 | 51.15296 | -0.17470 | 204 ft | 13 kts | 79° |
| 2026-05-07 15:04 | 51.15311 | -0.17374 | 207 ft | 7 kts | 54° |
| 2026-05-07 15:04 | 51.15353 | -0.17370 | 210 ft | 6 kts | 346° |
| 2026-05-07 15:04 | 51.15392 | -0.17385 | 212 ft | 7 kts | 347° |
| 2026-05-07 15:05 | 51.15453 | -0.17406 | 208 ft | 10 kts | 347° |
| 2026-05-07 15:05 | 51.15516 | -0.17428 | 216 ft | 9 kts | 348° |
| 2026-05-07 15:05 | 51.15577 | -0.17449 | 206 ft | 9 kts | 348° |
| 2026-05-07 15:05 | 51.15635 | -0.17469 | 204 ft | 8 kts | 347° |
| 2026-05-07 15:06 | 51.15678 | -0.17484 | 204 ft | 10 kts | 348° |
| 2026-05-07 15:06 | 51.15746 | -0.17499 | 207 ft | 9 kts | 9° |
| 2026-05-07 15:06 | 51.15774 | -0.17418 | 206 ft | 8 kts | 80° |
| 2026-05-07 15:06 | 51.15798 | -0.17347 | 214 ft | 4 kts | 349° |
| 2026-05-07 15:07 | 51.15818 | -0.17354 | 206 ft | 4 kts | 347° |
| 2026-05-07 15:07 | 51.15849 | -0.17365 | 207 ft | 5 kts | 348° |
| 2026-05-07 15:07 | 51.15866 | -0.17371 | 206 ft | 1 kts | 347° |
| 2026-05-07 15:07 | 51.15870 | -0.17373 | 207 ft | 0 kts | 347° |